Kelly Lake, Minnesota
Current Conditions -  °F | °C
As of 6:53 PM on Saturday 22 Nov 2014 (Local Time) from KHIB Reporting Station
Haze Haze  
Wind Chill: 27°   Ceiling: 800
Heat Index: 33°   Visibility: 6mi
Dew Point: 28°   Wind: 7mph
Humidity: 82%   Direction: 150°SSE
Pressure: 29.57"   Gusts: NA
Location:  47.4158°N, 93.0053°W
Report Text: KHIB 230053Z AUTO 15006KT 6SM HZ OVC008 01/M02 A2957 RMK AO2 SLP034 T00061022
Loading
Personal Weather Stations






























Interactive Weather Map New forecast layout! Learn more

10-Day Weather Forecast

Advertisements
Track Severe Weather on mobile